Time;durP1;ratioP1;P1;durP2;ratioP2;P2;SDS_P1;SDS_P2;PMS_P1;PMS_P2;Temp;Humidity;BMP_temperature;BMP_pressure;BME280_temperature;BME280_humidity;BME280_pressure;Samples;Min_cycle;Max_cycle;Signal;HPM_P1;HPM_P2
2024/01/21 00:01:13;;;;;;;11.57;9.77;;;-2.70;99.90;;;;;;3104811;28;20030;-73
2024/01/21 00:02:44;;;;;;;10.18;9.18;;;-3.20;99.90;;;;;;3116399;28;20056;-75
2024/01/21 00:04:15;;;;;;;10.57;9.68;;;-3.20;99.90;;;;;;3104368;28;20062;-74
2024/01/21 00:05:45;;;;;;;11.00;9.48;;;-3.30;99.90;;;;;;3100223;28;20030;-75
2024/01/21 00:07:16;;;;;;;11.90;10.45;;;-3.30;99.90;;;;;;3123019;28;20025;-75
2024/01/21 00:08:47;;;;;;;8.63;7.78;;;-3.40;99.90;;;;;;3112453;28;20026;-73
2024/01/21 00:10:17;;;;;;;11.23;9.32;;;-3.40;99.90;;;;;;3104455;28;20315;-72
2024/01/21 00:11:48;;;;;;;10.73;9.75;;;-3.40;99.90;;;;;;3105366;28;20042;-73
2024/01/21 00:13:19;;;;;;;10.63;9.73;;;-3.40;99.90;;;;;;3128548;28;20025;-73
2024/01/21 00:14:50;;;;;;;10.10;9.13;;;-3.40;99.90;;;;;;3116641;28;20034;-73
2024/01/21 00:16:20;;;;;;;17.77;9.43;;;-3.40;99.90;;;;;;3102922;28;20022;-73
2024/01/21 00:17:52;;;;;;;11.18;9.13;;;-3.40;99.90;;;;;;3112519;28;20022;-73
2024/01/21 00:19:22;;;;;;;9.20;8.27;;;-3.50;99.90;;;;;;3112222;28;20029;-74
2024/01/21 00:20:53;;;;;;;8.85;8.02;;;-3.50;99.90;;;;;;3113652;28;20040;-74
2024/01/21 00:22:24;;;;;;;14.48;9.30;;;-2.40;99.90;;;;;;3128750;28;20103;-73
2024/01/21 00:23:55;;;;;;;14.05;9.38;;;-3.50;99.90;;;;;;3129108;28;20029;-74
2024/01/21 00:25:25;;;;;;;10.82;8.82;;;-3.50;99.90;;;;;;3140900;28;20021;-75
2024/01/21 00:26:57;;;;;;;9.45;8.65;;;-3.60;99.90;;;;;;3123100;28;20038;-74
2024/01/21 00:28:28;;;;;;;9.63;8.80;;;-3.60;99.90;;;;;;3117258;28;20085;-73
2024/01/21 00:29:58;;;;;;;8.88;7.90;;;-3.70;99.90;;;;;;3116213;28;20021;-73
2024/01/21 00:31:30;;;;;;;12.10;8.20;;;-3.70;99.90;;;;;;3116114;28;20053;-73
2024/01/21 00:33:00;;;;;;;8.68;7.88;;;-3.70;99.90;;;;;;3116925;28;20040;-74
2024/01/21 00:34:31;;;;;;;7.80;7.13;;;-3.70;99.90;;;;;;3128660;28;20024;-73
2024/01/21 00:36:02;;;;;;;7.60;7.00;;;;;;;;;;3119778;28;20026;-74
2024/01/21 00:37:33;;;;;;;10.20;7.68;;;-3.80;99.90;;;;;;3104185;28;20142;-74
2024/01/21 00:39:04;;;;;;;10.80;7.85;;;-3.80;99.90;;;;;;3112529;28;20097;-75
2024/01/21 00:40:35;;;;;;;9.38;8.52;;;-3.90;99.90;;;;;;3111946;28;20303;-74
2024/01/21 00:42:06;;;;;;;9.13;8.23;;;-3.90;99.90;;;;;;3099843;28;20034;-75
2024/01/21 00:43:36;;;;;;;11.00;7.72;;;-3.80;99.90;;;;;;3099645;28;20035;-74
2024/01/21 00:45:08;;;;;;;9.30;8.40;;;-2.70;99.90;;;;;;3111957;28;20060;-73
2024/01/21 00:46:39;;;;;;;9.38;8.48;;;-3.80;99.90;;;;;;3115779;28;20224;-74
2024/01/21 00:48:09;;;;;;;10.82;9.70;;;-3.00;99.90;;;;;;3127900;28;20057;-74
2024/01/21 00:49:40;;;;;;;10.75;8.73;;;-3.50;99.90;;;;;;3116086;28;20022;-74
2024/01/21 00:51:11;;;;;;;9.93;7.60;;;-3.10;99.90;;;;;;3115009;28;20072;-74
2024/01/21 00:52:42;;;;;;;7.65;7.03;;;-3.90;99.90;;;;;;3118922;28;20379;-73
2024/01/21 00:54:13;;;;;;;8.18;7.32;;;;;;;;;;3117106;28;20042;-73
2024/01/21 00:55:44;;;;;;;10.93;9.23;;;-3.90;99.90;;;;;;3102125;28;20048;-73
2024/01/21 00:57:15;;;;;;;8.90;8.10;;;-3.90;99.90;;;;;;3089954;28;20031;-74
2024/01/21 00:58:45;;;;;;;9.13;8.32;;;-3.70;99.90;;;;;;3102698;28;20029;-74
2024/01/21 01:00:17;;;;;;;8.70;7.93;;;-3.80;99.90;;;;;;3106586;28;20073;-74
2024/01/21 01:01:47;;;;;;;9.88;8.82;;;-3.90;99.90;;;;;;3106262;28;20041;-73
2024/01/21 01:03:18;;;;;;;9.00;8.20;;;-3.90;99.90;;;;;;3126572;28;20332;-73
2024/01/21 01:04:49;;;;;;;11.23;8.95;;;-3.80;99.90;;;;;;3115044;28;20312;-75
2024/01/21 01:06:20;;;;;;;12.52;9.05;;;-3.90;99.90;;;;;;3129906;28;20239;-73
2024/01/21 01:07:51;;;;;;;9.48;8.60;;;-3.80;99.90;;;;;;3094318;28;20023;-73
2024/01/21 01:09:21;;;;;;;10.25;8.75;;;-3.80;99.90;;;;;;3106189;28;20143;-73
2024/01/21 01:10:52;;;;;;;7.95;7.25;;;-3.80;99.90;;;;;;3114434;28;20247;-74
2024/01/21 01:12:23;;;;;;;9.10;8.20;;;-3.00;99.90;;;;;;3120640;28;20348;-73
2024/01/21 01:13:54;;;;;;;8.00;7.20;;;-3.70;99.90;;;;;;3126437;28;20136;-74
2024/01/21 01:15:25;;;;;;;8.52;7.38;;;-1.90;99.90;;;;;;3126489;28;20041;-74
2024/01/21 01:16:56;;;;;;;12.50;8.00;;;-3.70;99.90;;;;;;3116535;28;20304;-73
2024/01/21 01:18:27;;;;;;;7.68;6.97;;;-3.70;99.90;;;;;;3118817;28;20034;-74
2024/01/21 01:19:58;;;;;;;8.75;7.82;;;-3.70;99.90;;;;;;3120692;28;20046;-73
2024/01/21 01:21:28;;;;;;;8.27;7.55;;;-3.70;99.90;;;;;;3118384;28;20033;-73
2024/01/21 01:23:00;;;;;;;9.88;8.10;;;-3.70;99.90;;;;;;3114286;28;20030;-73
2024/01/21 01:24:31;;;;;;;9.60;8.32;;;-3.60;99.90;;;;;;3118042;28;20041;-73
2024/01/21 01:26:02;;;;;;;8.50;6.72;;;-3.60;99.90;;;;;;3117788;28;20088;-74
2024/01/21 01:27:36;;;;;;;8.40;7.32;;;-3.60;99.90;;;;;;3118700;28;20316;-73
2024/01/21 01:29:06;;;;;;;10.00;8.95;;;-3.60;99.90;;;;;;3118242;28;20377;-73
2024/01/21 01:30:37;;;;;;;10.40;8.07;;;-3.50;99.90;;;;;;3118502;28;20030;-74
2024/01/21 01:32:08;;;;;;;9.63;7.97;;;-3.50;99.90;;;;;;3118104;28;20091;-73
2024/01/21 01:33:39;;;;;;;8.02;7.32;;;-3.50;99.90;;;;;;3118677;28;20056;-73
2024/01/21 01:35:09;;;;;;;11.68;7.95;;;-3.40;99.90;;;;;;3117798;28;20022;-73
2024/01/21 01:36:40;;;;;;;8.00;7.20;;;-3.40;99.90;;;;;;3117482;28;20072;-74
2024/01/21 01:38:13;;;;;;;6.45;5.95;;;-3.40;99.90;;;;;;3118792;28;20033;-73
2024/01/21 01:39:43;;;;;;;8.40;7.55;;;-3.40;99.90;;;;;;3118914;28;20038;-74
2024/01/21 01:41:15;;;;;;;9.75;8.32;;;-3.40;99.90;;;;;;3119067;28;20117;-74
2024/01/21 01:42:59;;;;;;;10.50;7.43;;;-3.40;99.90;;;;;;3118945;28;20133;-74
2024/01/21 01:44:29;;;;;;;7.57;6.97;;;-3.50;99.90;;;;;;3118123;28;20006;-73
2024/01/21 01:46:00;;;;;;;7.40;6.80;;;-3.40;99.90;;;;;;3116993;28;20028;-75
2024/01/21 01:47:31;;;;;;;10.50;7.45;;;-3.50;99.90;;;;;;3118620;28;20068;-73
2024/01/21 01:49:05;;;;;;;8.65;7.43;;;-3.50;99.90;;;;;;3118770;28;20033;-74
2024/01/21 01:50:36;;;;;;;7.20;6.47;;;-3.50;99.90;;;;;;3118497;28;20124;-74
2024/01/21 01:52:14;;;;;;;8.73;6.57;;;-3.50;99.90;;;;;;3106109;28;20046;-73
2024/01/21 01:53:45;;;;;;;10.30;6.75;;;-3.60;99.90;;;;;;3115064;28;20029;-74
2024/01/21 01:55:17;;;;;;;7.90;7.10;;;-3.60;99.90;;;;;;3117843;28;20080;-74
2024/01/21 01:56:49;;;;;;;8.75;6.90;;;-3.70;99.90;;;;;;3100627;28;20027;-73
2024/01/21 01:58:26;;;;;;;8.05;6.35;;;-3.70;99.90;;;;;;3101863;28;20037;-73
2024/01/21 01:59:57;;;;;;;8.05;7.43;;;-3.70;99.90;;;;;;3111279;28;20017;-74
2024/01/21 02:01:28;;;;;;;7.90;7.18;;;-3.70;99.90;;;;;;3128199;28;20029;-73
2024/01/21 02:03:00;;;;;;;8.98;7.43;;;-3.70;99.90;;;;;;3130114;28;20378;-73
2024/01/21 02:04:30;;;;;;;8.57;7.78;;;-3.60;99.90;;;;;;3130956;28;20207;-73
2024/01/21 02:06:01;;;;;;;8.55;7.63;;;-3.70;99.90;;;;;;3128031;28;20025;-73
2024/01/21 02:07:32;;;;;;;8.45;6.88;;;-3.70;99.90;;;;;;3117265;28;20034;-74
2024/01/21 02:09:03;;;;;;;7.10;6.50;;;-3.70;99.90;;;;;;3101834;28;20223;-73
2024/01/21 02:10:34;;;;;;;7.43;6.85;;;-3.60;99.90;;;;;;3106298;28;20046;-75
2024/01/21 02:12:05;;;;;;;7.97;7.22;;;-3.70;99.90;;;;;;3117646;28;20065;-73
2024/01/21 02:13:36;;;;;;;5.75;5.28;;;-3.70;99.90;;;;;;3097353;28;20035;-74
2024/01/21 02:15:07;;;;;;;7.45;6.75;;;-3.70;99.90;;;;;;3113587;28;20026;-73
2024/01/21 02:16:38;;;;;;;8.65;7.78;;;-3.70;99.90;;;;;;3102718;28;20034;-74
2024/01/21 02:18:09;;;;;;;10.75;7.55;;;-3.80;99.90;;;;;;3113844;28;20037;-74
2024/01/21 02:19:43;;;;;;;8.48;7.57;;;-3.80;99.90;;;;;;3129800;28;20311;-74
2024/01/21 02:21:14;;;;;;;8.45;7.75;;;-3.90;99.90;;;;;;3105483;28;20455;-74
2024/01/21 02:22:46;;;;;;;8.48;7.68;;;-3.80;99.90;;;;;;3081558;28;20043;-74
2024/01/21 02:24:17;;;;;;;7.40;6.90;;;-3.90;99.90;;;;;;3105982;28;20030;-74
2024/01/21 02:25:48;;;;;;;6.65;6.03;;;-3.90;99.90;;;;;;3110107;28;20027;-74
2024/01/21 02:27:18;;;;;;;8.23;6.25;;;-3.90;99.90;;;;;;3117095;28;20056;-73
2024/01/21 02:28:49;;;;;;;7.40;6.68;;;-3.90;99.90;;;;;;3095035;28;20038;-73
2024/01/21 02:30:20;;;;;;;6.60;5.72;;;;;;;;;;3121569;28;20030;-73
2024/01/21 02:31:53;;;;;;;7.75;7.03;;;-3.90;99.90;;;;;;3117671;28;20137;-74
2024/01/21 02:33:23;;;;;;;8.05;7.22;;;-3.90;99.90;;;;;;3129810;28;20021;-74
2024/01/21 02:34:54;;;;;;;10.85;6.15;;;-3.80;99.90;;;;;;3117416;28;20042;-75
2024/01/21 02:36:25;;;;;;;6.85;5.43;;;-3.70;99.90;;;;;;3112069;28;20018;-73
2024/01/21 02:37:56;;;;;;;7.13;6.38;;;-3.80;99.90;;;;;;3118027;28;20026;-73
2024/01/21 02:39:27;;;;;;;6.15;5.65;;;-3.80;99.90;;;;;;3117136;28;20112;-73
2024/01/21 02:40:58;;;;;;;7.13;6.63;;;-3.60;99.90;;;;;;3117832;28;20081;-74
2024/01/21 02:42:29;;;;;;;6.43;5.78;;;-2.90;99.90;;;;;;3118593;28;20096;-73
2024/01/21 02:44:01;;;;;;;7.63;6.53;;;-3.70;99.90;;;;;;3118191;28;20308;-73
2024/01/21 02:45:31;;;;;;;6.55;5.90;;;-3.60;99.90;;;;;;3117476;28;20018;-73
2024/01/21 02:47:04;;;;;;;6.47;5.57;;;-3.50;99.90;;;;;;3102414;28;20093;-75
2024/01/21 02:48:35;;;;;;;5.28;4.82;;;-3.40;99.90;;;;;;3108768;28;20347;-74
2024/01/21 02:50:06;;;;;;;6.15;5.55;;;-3.40;99.90;;;;;;3115950;28;20022;-73
2024/01/21 02:51:37;;;;;;;6.50;5.15;;;-3.30;99.90;;;;;;3113123;28;20104;-74
2024/01/21 02:53:08;;;;;;;6.95;4.72;;;-3.10;99.90;;;;;;3109172;28;20042;-73
2024/01/21 02:54:38;;;;;;;6.45;5.95;;;-2.80;99.90;;;;;;3126197;28;20032;-73
2024/01/21 02:56:22;;;;;;;6.13;5.53;;;-3.00;99.90;;;;;;3137899;28;20095;-74
2024/01/21 02:57:54;;;;;;;6.97;6.22;;;-2.80;99.90;;;;;;3103711;28;20098;-74
2024/01/21 02:59:24;;;;;;;7.50;6.75;;;-2.70;99.90;;;;;;3109203;28;20037;-74
2024/01/21 03:00:55;;;;;;;8.00;6.50;;;-2.50;99.90;;;;;;3127248;28;20022;-74
2024/01/21 03:02:26;;;;;;;5.47;4.88;;;-2.50;99.90;;;;;;3139593;28;20056;-73
2024/01/21 03:03:57;;;;;;;7.15;5.13;;;-2.60;99.90;;;;;;3117277;28;20032;-73
2024/01/21 03:05:27;;;;;;;5.30;4.90;;;-2.50;99.90;;;;;;3117767;28;20030;-76
2024/01/21 03:06:58;;;;;;;6.85;4.70;;;-2.50;99.90;;;;;;3103741;28;20089;-74
2024/01/21 03:08:29;;;;;;;6.10;5.50;;;-1.70;99.90;;;;;;3110649;28;20080;-75
2024/01/21 03:10:00;;;;;;;13.07;5.95;;;-2.50;99.90;;;;;;3112671;28;20528;-75
2024/01/21 03:11:32;;;;;;;10.82;5.72;;;-2.50;99.90;;;;;;3125275;28;20033;-74
2024/01/21 03:13:03;;;;;;;5.15;4.75;;;-2.50;99.90;;;;;;3104292;28;20320;-76
2024/01/21 03:14:34;;;;;;;7.22;4.72;;;-2.50;99.90;;;;;;3113656;28;20063;-73
2024/01/21 03:16:05;;;;;;;12.82;5.70;;;-2.50;99.90;;;;;;3116703;28;20037;-74
2024/01/21 03:17:36;;;;;;;7.10;6.47;;;-2.50;99.90;;;;;;3105113;28;20034;-75
2024/01/21 03:19:07;;;;;;;8.35;7.53;;;-2.50;99.90;;;;;;3113173;28;20026;-74
2024/01/21 03:20:38;;;;;;;8.82;6.22;;;-2.50;99.90;;;;;;3117440;28;20064;-74
2024/01/21 03:22:08;;;;;;;7.47;6.88;;;-2.50;99.90;;;;;;3118094;28;20025;-74
2024/01/21 03:23:39;;;;;;;5.40;4.97;;;-2.50;99.90;;;;;;3117434;28;20026;-75
2024/01/21 03:25:10;;;;;;;6.50;6.00;;;-2.50;99.90;;;;;;3116822;28;20024;-73
2024/01/21 03:26:40;;;;;;;8.23;5.65;;;-2.50;99.90;;;;;;3116083;28;20030;-73
2024/01/21 03:28:12;;;;;;;5.63;4.70;;;-2.50;99.90;;;;;;3116887;28;20041;-75
2024/01/21 03:29:42;;;;;;;6.47;5.00;;;-2.50;99.90;;;;;;3116807;28;20366;-73
2024/01/21 03:31:13;;;;;;;5.70;5.25;;;-2.30;99.90;;;;;;3124752;28;20021;-73
2024/01/21 03:32:44;;;;;;;5.68;5.18;;;;;;;;;;3121453;28;20044;-74
2024/01/21 03:34:15;;;;;;;9.45;6.70;;;-2.40;99.90;;;;;;3116632;28;20100;-74
2024/01/21 03:35:47;;;;;;;7.80;6.25;;;-2.20;99.90;;;;;;3112798;28;20029;-74
2024/01/21 03:37:18;;;;;;;6.50;6.03;;;-2.40;99.90;;;;;;3116134;28;20091;-73
2024/01/21 03:38:50;;;;;;;5.90;5.10;;;-0.30;99.90;;;;;;3117817;28;20026;-73
2024/01/21 03:40:23;;;;;;;5.13;4.63;;;-1.80;99.90;;;;;;3116828;28;20212;-73
2024/01/21 03:41:55;;;;;;;5.53;4.63;;;;;;;;;;3104416;28;20438;-74
2024/01/21 03:43:26;;;;;;;8.23;7.43;;;-2.30;99.90;;;;;;3112794;28;20043;-74
2024/01/21 03:44:57;;;;;;;5.80;5.22;;;-2.00;99.90;;;;;;3112663;28;20026;-74
2024/01/21 03:46:27;;;;;;;6.72;6.15;;;-2.30;99.90;;;;;;3111115;28;20089;-74
2024/01/21 03:47:58;;;;;;;6.82;6.13;;;-2.00;99.90;;;;;;3117138;28;20215;-73
2024/01/21 03:49:29;;;;;;;5.72;5.22;;;-2.30;99.90;;;;;;3129040;28;20294;-74
2024/01/21 03:51:00;;;;;;;4.95;4.55;;;-2.30;99.90;;;;;;3108988;28;20030;-74
2024/01/21 03:52:31;;;;;;;5.72;5.32;;;-2.30;99.90;;;;;;3113267;28;20080;-75
2024/01/21 03:54:02;;;;;;;5.75;5.25;;;-2.20;99.90;;;;;;3117787;28;20033;-73
2024/01/21 03:55:33;;;;;;;9.43;6.97;;;-2.10;99.90;;;;;;3116366;28;20028;-74
2024/01/21 03:57:05;;;;;;;7.70;6.97;;;-1.20;99.90;;;;;;3100714;28;20030;-74
2024/01/21 03:58:36;;;;;;;6.78;6.07;;;-2.00;99.90;;;;;;3106107;28;20092;-74
2024/01/21 04:00:08;;;;;;;5.85;5.43;;;-2.00;99.90;;;;;;3117364;28;20034;-73
2024/01/21 04:01:44;;;;;;;5.57;4.78;;;-2.00;99.90;;;;;;3117456;28;20028;-75
2024/01/21 04:03:15;;;;;;;6.57;4.15;;;-1.80;99.90;;;;;;3116541;28;20065;-75
2024/01/21 04:04:46;;;;;;;4.25;3.95;;;-1.40;99.90;;;;;;3116890;28;20026;-75
2024/01/21 04:06:16;;;;;;;5.88;5.40;;;-1.40;99.90;;;;;;3114943;28;20093;-74
2024/01/21 04:07:47;;;;;;;7.90;6.15;;;-1.10;99.90;;;;;;3104388;28;20014;-74
2024/01/21 04:09:23;;;;;;;6.25;4.78;;;-0.50;99.90;;;;;;3112955;28;20125;-74
2024/01/21 04:10:54;;;;;;;6.47;5.90;;;-0.30;99.90;;;;;;3116397;28;20024;-74
2024/01/21 04:12:25;;;;;;;5.72;5.03;;;0.30;99.90;;;;;;3112313;28;20366;-75
2024/01/21 04:13:55;;;;;;;5.35;4.85;;;0.00;99.90;;;;;;3112818;28;20030;-74
2024/01/21 04:15:26;;;;;;;5.90;5.40;;;0.20;99.90;;;;;;3116882;28;20029;-74
2024/01/21 04:16:57;;;;;;;6.22;5.10;;;0.30;99.90;;;;;;3106881;28;20105;-74
2024/01/21 04:18:28;;;;;;;5.22;4.82;;;0.40;99.90;;;;;;3096565;28;20475;-74
2024/01/21 04:19:59;;;;;;;7.18;4.43;;;0.50;99.90;;;;;;3111957;28;20013;-74
2024/01/21 04:21:32;;;;;;;5.40;4.90;;;0.60;99.90;;;;;;3116413;28;20327;-75
2024/01/21 04:23:03;;;;;;;7.10;4.65;;;0.70;99.90;;;;;;3092226;28;20018;-74
2024/01/21 04:24:34;;;;;;;6.35;4.80;;;0.80;99.90;;;;;;3109186;28;20188;-74
2024/01/21 04:26:05;;;;;;;4.50;4.10;;;0.90;99.90;;;;;;3118304;28;20050;-75
2024/01/21 04:27:36;;;;;;;5.53;4.95;;;0.90;99.90;;;;;;3106715;28;20022;-74
2024/01/21 04:29:06;;;;;;;5.57;5.00;;;0.90;99.90;;;;;;3114964;28;20049;-74
2024/01/21 04:30:39;;;;;;;4.20;3.80;;;0.90;99.90;;;;;;3114587;28;20033;-74
2024/01/21 04:32:10;;;;;;;7.03;5.10;;;0.90;99.90;;;;;;3114590;28;20384;-75
2024/01/21 04:33:40;;;;;;;5.22;4.82;;;1.10;99.90;;;;;;3119434;28;20034;-74
2024/01/21 04:35:11;;;;;;;4.47;4.18;;;1.00;99.90;;;;;;3118822;28;20262;-75
2024/01/21 04:36:43;;;;;;;7.82;5.82;;;1.10;99.90;;;;;;3118525;28;20026;-74
2024/01/21 04:38:14;;;;;;;6.00;5.50;;;1.10;99.90;;;;;;3118948;28;20049;-75
2024/01/21 04:39:45;;;;;;;4.88;4.47;;;1.10;99.90;;;;;;3119396;28;20045;-75
2024/01/21 04:41:15;;;;;;;6.03;5.47;;;1.10;99.90;;;;;;3131210;28;20051;-75
2024/01/21 04:42:46;;;;;;;7.97;4.80;;;1.30;99.90;;;;;;3123254;28;20029;-75
2024/01/21 04:44:17;;;;;;;5.63;5.22;;;1.20;99.90;;;;;;3119465;28;20022;-75
2024/01/21 04:45:48;;;;;;;5.15;4.65;;;1.10;99.90;;;;;;3118804;28;20036;-75
2024/01/21 04:47:19;;;;;;;6.55;5.90;;;1.10;99.90;;;;;;3113389;28;20049;-75
2024/01/21 04:48:50;;;;;;;7.03;5.93;;;1.20;99.90;;;;;;3114540;28;20056;-75
2024/01/21 04:50:20;;;;;;;6.32;5.63;;;1.40;99.90;;;;;;3114580;28;20200;-74
2024/01/21 04:51:52;;;;;;;6.43;5.57;;;1.20;99.90;;;;;;3106585;28;20033;-75
2024/01/21 04:53:23;;;;;;;5.72;5.10;;;1.30;99.90;;;;;;3110734;28;20034;-74
2024/01/21 04:54:53;;;;;;;7.78;6.28;;;1.20;99.90;;;;;;3102120;28;20355;-74
2024/01/21 04:56:24;;;;;;;5.00;4.63;;;1.30;99.90;;;;;;3109054;28;20228;-75
2024/01/21 04:57:55;;;;;;;5.80;4.93;;;1.30;99.90;;;;;;3106468;28;20033;-75
2024/01/21 04:59:26;;;;;;;6.85;6.30;;;1.30;99.90;;;;;;3089304;28;20035;-75
2024/01/21 05:00:57;;;;;;;6.75;6.10;;;;;;;;;;3106356;28;20056;-75
2024/01/21 05:02:28;;;;;;;8.43;6.63;;;1.20;99.90;;;;;;3114377;28;20033;-74
2024/01/21 05:03:59;;;;;;;7.03;5.43;;;1.20;99.90;;;;;;3094494;28;20050;-75
2024/01/21 05:05:30;;;;;;;7.38;4.63;;;1.20;99.90;;;;;;3110692;28;20021;-75
2024/01/21 05:07:00;;;;;;;5.88;5.43;;;1.30;99.90;;;;;;3104706;28;20247;-75
2024/01/21 05:08:32;;;;;;;5.85;5.35;;;1.70;99.90;;;;;;3110142;28;20017;-76
2024/01/21 05:10:04;;;;;;;6.40;5.75;;;1.20;99.90;;;;;;3114117;28;20022;-76
2024/01/21 05:11:34;;;;;;;6.40;5.75;;;1.20;99.90;;;;;;3114412;28;20026;-76
2024/01/21 05:13:06;;;;;;;7.85;7.00;;;;;;;;;;3114367;28;20255;-75
2024/01/21 05:14:38;;;;;;;6.55;5.78;;;1.10;99.90;;;;;;3114176;28;20059;-76
2024/01/21 05:16:09;;;;;;;6.60;6.00;;;1.20;99.90;;;;;;3102508;28;20026;-75
2024/01/21 05:17:40;;;;;;;5.28;4.85;;;1.20;99.90;;;;;;3102188;28;20212;-76
2024/01/21 05:19:13;;;;;;;6.88;5.47;;;1.20;99.90;;;;;;3114555;28;20025;-75
2024/01/21 05:20:44;;;;;;;6.93;6.40;;;1.20;99.90;;;;;;3110249;28;20053;-76
2024/01/21 05:22:15;;;;;;;5.88;5.22;;;1.20;99.90;;;;;;3118313;28;20034;-76
2024/01/21 05:23:50;;;;;;;8.40;6.53;;;1.20;99.90;;;;;;3110258;28;20101;-76
2024/01/21 05:25:20;;;;;;;8.00;5.75;;;1.20;99.90;;;;;;3127012;28;20074;-75
2024/01/21 05:26:51;;;;;;;5.97;5.35;;;1.20;99.90;;;;;;3084677;28;20087;-75
2024/01/21 05:28:22;;;;;;;7.32;6.63;;;1.30;99.90;;;;;;3099332;28;20030;-75
2024/01/21 05:29:53;;;;;;;6.70;6.03;;;1.20;99.90;;;;;;3118625;28;20045;-75
2024/01/21 05:31:28;;;;;;;7.65;5.57;;;1.50;99.90;;;;;;3118455;28;20041;-75
2024/01/21 05:32:59;;;;;;;8.13;5.65;;;1.20;99.90;;;;;;3109887;28;20234;-75
2024/01/21 05:34:29;;;;;;;8.27;6.45;;;1.30;99.90;;;;;;3105687;28;20022;-76
2024/01/21 05:36:00;;;;;;;7.68;6.95;;;2.10;99.90;;;;;;3106336;28;20038;-76
2024/01/21 05:37:31;;;;;;;6.25;5.57;;;1.40;99.90;;;;;;3117835;28;20038;-77
2024/01/21 05:39:03;;;;;;;6.63;5.28;;;1.30;99.90;;;;;;3101638;28;20038;-76
2024/01/21 05:40:35;;;;;;;7.90;5.45;;;1.60;99.90;;;;;;3114644;28;20034;-74
2024/01/21 05:42:07;;;;;;;8.82;6.38;;;1.30;99.90;;;;;;3118388;28;20215;-76
2024/01/21 05:43:38;;;;;;;5.97;5.47;;;1.40;99.90;;;;;;3118812;28;20308;-74
2024/01/21 05:45:09;;;;;;;7.53;6.80;;;1.30;99.90;;;;;;3105691;28;20065;-74
2024/01/21 05:46:40;;;;;;;6.15;5.55;;;1.30;99.90;;;;;;3112690;28;20029;-75
2024/01/21 05:48:11;;;;;;;6.57;5.80;;;1.40;99.90;;;;;;3118100;28;20105;-76
2024/01/21 05:49:43;;;;;;;7.82;6.18;;;1.40;99.90;;;;;;3125487;28;20025;-75
2024/01/21 05:51:13;;;;;;;6.10;5.50;;;1.30;99.90;;;;;;3118026;28;20026;-75
2024/01/21 05:52:45;;;;;;;7.03;6.35;;;;;;;;;;3126298;28;20230;-76
2024/01/21 05:54:16;;;;;;;6.53;5.68;;;1.30;99.90;;;;;;3105801;28;20072;-75
2024/01/21 05:55:47;;;;;;;5.95;5.35;;;1.40;99.90;;;;;;3122173;28;20092;-75
2024/01/21 05:57:18;;;;;;;5.93;5.40;;;1.40;99.90;;;;;;3121506;28;20037;-76
2024/01/21 05:58:49;;;;;;;5.97;5.10;;;1.40;99.90;;;;;;3117831;28;20201;-76
2024/01/21 06:00:20;;;;;;;7.63;6.35;;;1.40;99.90;;;;;;3118272;28;20079;-76
2024/01/21 06:01:50;;;;;;;7.18;6.38;;;1.40;99.90;;;;;;3129959;28;20072;-75
2024/01/21 06:03:21;;;;;;;10.98;5.55;;;1.90;99.90;;;;;;3122072;28;20053;-76
2024/01/21 06:04:52;;;;;;;6.32;5.20;;;1.30;99.90;;;;;;3130120;28;20037;-77
2024/01/21 06:06:23;;;;;;;5.82;5.32;;;1.30;99.90;;;;;;3120371;28;20050;-73
2024/01/21 06:07:53;;;;;;;5.72;5.15;;;1.40;99.90;;;;;;3129931;28;20037;-73
2024/01/21 06:09:24;;;;;;;8.07;7.28;;;1.40;99.90;;;;;;3122413;28;20034;-74
2024/01/21 06:10:55;;;;;;;8.20;5.70;;;1.30;99.90;;;;;;3129860;28;20063;-76
2024/01/21 06:12:26;;;;;;;6.20;5.70;;;1.30;99.90;;;;;;3105505;28;20034;-76
2024/01/21 06:13:57;;;;;;;11.00;5.35;;;1.30;99.90;;;;;;3109741;28;20018;-73
2024/01/21 06:15:27;;;;;;;5.97;5.18;;;1.30;99.90;;;;;;3117807;28;20030;-75
2024/01/21 06:16:59;;;;;;;8.73;4.95;;;1.40;99.90;;;;;;3090106;28;20030;-74
2024/01/21 06:18:29;;;;;;;6.00;5.28;;;1.40;99.90;;;;;;3111430;28;20029;-76
2024/01/21 06:20:00;;;;;;;6.00;5.40;;;2.60;99.90;;;;;;3121557;28;20120;-75
2024/01/21 06:21:31;;;;;;;6.15;5.30;;;1.50;99.90;;;;;;3124809;28;20041;-75
2024/01/21 06:23:02;;;;;;;9.10;6.45;;;1.50;99.90;;;;;;3142361;28;20036;-74
2024/01/21 06:24:37;;;;;;;7.50;5.80;;;1.50;99.90;;;;;;3133808;28;20017;-75
2024/01/21 06:26:15;;;;;;;7.15;5.57;;;2.30;99.90;;;;;;3125997;28;20029;-77
2024/01/21 06:27:46;;;;;;;10.15;6.88;;;1.50;99.90;;;;;;3114579;28;20038;-76
2024/01/21 06:29:17;;;;;;;6.80;5.85;;;1.60;99.90;;;;;;3113206;28;20068;-76
2024/01/21 06:30:47;;;;;;;6.72;6.10;;;1.60;99.90;;;;;;3117728;28;20081;-76
2024/01/21 06:32:18;;;;;;;9.73;7.38;;;1.60;99.90;;;;;;3118443;28;20073;-75
2024/01/21 06:33:49;;;;;;;7.22;6.53;;;1.60;99.90;;;;;;3105509;28;20045;-75
2024/01/21 06:35:20;;;;;;;6.72;5.68;;;1.60;99.90;;;;;;3113219;28;20214;-75
2024/01/21 06:36:51;;;;;;;7.20;5.65;;;1.60;99.90;;;;;;3103947;28;20018;-76
2024/01/21 06:38:22;;;;;;;10.35;6.45;;;2.20;99.90;;;;;;3114311;28;20057;-75
2024/01/21 06:39:52;;;;;;;7.82;6.70;;;1.70;99.90;;;;;;3122806;28;20037;-75
2024/01/21 06:41:23;;;;;;;6.03;5.47;;;1.60;99.90;;;;;;3119786;28;20323;-76
2024/01/21 06:42:54;;;;;;;20.58;6.28;;;1.60;99.90;;;;;;3118149;28;20071;-77
2024/01/21 06:44:25;;;;;;;6.28;5.78;;;1.60;99.90;;;;;;3117098;28;20034;-77
2024/01/21 06:45:55;;;;;;;9.05;8.15;;;1.60;99.90;;;;;;3114574;28;20259;-76
2024/01/21 06:47:26;;;;;;;12.77;10.75;;;1.60;99.90;;;;;;3114630;28;20998;-76
2024/01/21 06:48:57;;;;;;;7.80;7.20;;;1.70;99.90;;;;;;3112106;28;20049;-77
2024/01/21 06:50:28;;;;;;;9.10;8.13;;;2.60;99.90;;;;;;3116529;28;20034;-76
2024/01/21 06:51:58;;;;;;;10.63;8.52;;;1.60;99.90;;;;;;3103849;28;20320;-77
2024/01/21 06:53:30;;;;;;;9.32;8.40;;;1.70;99.90;;;;;;3119348;28;20061;-78
2024/01/21 06:55:00;;;;;;;14.18;12.63;;;1.70;99.90;;;;;;3103825;28;20251;-77
2024/01/21 06:56:31;;;;;;;10.07;7.30;;;1.70;99.90;;;;;;3118571;28;20036;-76
2024/01/21 06:58:03;;;;;;;8.50;7.32;;;1.70;99.90;;;;;;3108535;28;20018;-76
2024/01/21 06:59:33;;;;;;;11.48;8.57;;;1.70;99.90;;;;;;3104369;28;20041;-78
2024/01/21 07:01:05;;;;;;;8.52;7.80;;;1.80;99.90;;;;;;3123903;28;20037;-75
2024/01/21 07:02:35;;;;;;;8.02;7.22;;;1.70;99.90;;;;;;3108260;28;20232;-74
2024/01/21 07:04:06;;;;;;;5.30;4.78;;;1.80;99.90;;;;;;3112743;28;20022;-75
2024/01/21 07:05:37;;;;;;;12.27;6.97;;;1.80;99.90;;;;;;3115685;28;20034;-75
2024/01/21 07:07:08;;;;;;;8.20;6.80;;;1.70;99.90;;;;;;3114296;28;20026;-76
2024/01/21 07:08:40;;;;;;;8.75;4.95;;;1.80;99.90;;;;;;3102783;28;20038;-80
2024/01/21 07:10:13;;;;;;;8.27;6.32;;;1.80;99.90;;;;;;3119137;28;20379;-76
2024/01/21 07:11:44;;;;;;;10.93;7.18;;;1.70;99.90;;;;;;3103396;28;20030;-77
2024/01/21 07:13:15;;;;;;;6.85;6.25;;;1.70;99.90;;;;;;3105859;28;20242;-77
2024/01/21 07:14:45;;;;;;;7.43;6.00;;;2.00;99.90;;;;;;3102129;28;20125;-78
2024/01/21 07:16:16;;;;;;;7.95;7.15;;;1.70;99.90;;;;;;3105060;28;20527;-77
2024/01/21 07:17:48;;;;;;;7.10;6.45;;;1.70;99.90;;;;;;3112694;28;20357;-80
2024/01/21 07:19:18;;;;;;;9.23;5.72;;;1.70;99.90;;;;;;3099292;28;20015;-74
2024/01/21 07:20:49;;;;;;;6.47;5.88;;;1.70;99.90;;;;;;3111095;28;20279;-75
2024/01/21 07:22:20;;;;;;;6.13;5.60;;;1.80;99.90;;;;;;3105903;28;20037;-75
2024/01/21 07:23:51;;;;;;;5.82;5.28;;;1.70;99.90;;;;;;3108611;28;20071;-74
2024/01/21 07:25:22;;;;;;;11.55;5.60;;;1.90;99.90;;;;;;3111536;28;20460;-74
2024/01/21 07:26:53;;;;;;;5.35;4.85;;;1.70;99.90;;;;;;3114950;28;20104;-74
2024/01/21 07:28:24;;;;;;;8.25;5.50;;;1.80;99.90;;;;;;3091094;28;20320;-74
2024/01/21 07:29:54;;;;;;;7.03;5.78;;;1.80;99.90;;;;;;3107653;28;20342;-78
2024/01/21 07:31:25;;;;;;;7.18;6.07;;;1.90;99.90;;;;;;3111428;28;20083;-76
2024/01/21 07:32:58;;;;;;;6.55;5.05;;;1.60;99.90;;;;;;3101308;28;20302;-75
2024/01/21 07:34:29;;;;;;;8.43;5.40;;;1.80;99.90;;;;;;3097551;28;20022;-77
2024/01/21 07:36:03;;;;;;;7.28;5.93;;;1.90;99.90;;;;;;3097961;28;20058;-76
2024/01/21 07:37:34;;;;;;;5.93;5.15;;;1.90;99.90;;;;;;3111075;28;20032;-75
2024/01/21 07:39:05;;;;;;;7.10;6.28;;;1.50;99.90;;;;;;3100066;28;20038;-74
2024/01/21 07:40:35;;;;;;;8.60;5.28;;;1.80;99.90;;;;;;3111074;28;20038;-75
2024/01/21 07:42:06;;;;;;;5.57;5.18;;;1.80;99.90;;;;;;3112025;28;20026;-75
2024/01/21 07:43:37;;;;;;;5.75;5.18;;;2.00;99.90;;;;;;3107644;28;20030;-74
2024/01/21 07:45:08;;;;;;;8.93;7.30;;;2.00;99.90;;;;;;3102351;28;20081;-75
2024/01/21 07:46:39;;;;;;;9.50;7.85;;;1.90;99.90;;;;;;3109360;28;20184;-75
2024/01/21 07:48:10;;;;;;;6.45;5.93;;;1.50;99.90;;;;;;3088866;28;20057;-76
2024/01/21 07:49:41;;;;;;;5.32;4.72;;;1.90;99.90;;;;;;3106953;28;20022;-75
2024/01/21 07:51:12;;;;;;;5.32;4.80;;;2.00;99.90;;;;;;3087454;28;20058;-74
2024/01/21 07:52:43;;;;;;;5.30;4.72;;;2.00;99.90;;;;;;3093431;28;20215;-75
2024/01/21 07:54:14;;;;;;;6.13;5.57;;;2.00;99.90;;;;;;3090311;28;20081;-75
2024/01/21 07:55:45;;;;;;;4.93;4.53;;;2.00;99.90;;;;;;3107280;28;20038;-74
2024/01/21 07:57:16;;;;;;;7.05;5.65;;;2.10;99.90;;;;;;3108150;28;20030;-77
2024/01/21 07:58:47;;;;;;;5.95;5.25;;;2.60;99.90;;;;;;3103713;28;20046;-74